Time;durP1;ratioP1;P1;durP2;ratioP2;P2;SDS_P1;SDS_P2;PMS_P1;PMS_P2;Temp;Humidity;BMP_temperature;BMP_pressure;BME280_temperature;BME280_humidity;BME280_pressure;Samples;Min_cycle;Max_cycle;Signal;HPM_P1;HPM_P2
2022/08/30 00:01:08;;;;;;;2.30;0.80;;;21.20;75.00;;;;;;5053181;28;20013;-81
2022/08/30 00:03:44;;;;;;;2.35;1.05;;;21.20;75.00;;;;;;5053369;28;20372;-80
2022/08/30 00:06:12;;;;;;;4.53;1.20;;;21.00;75.80;;;;;;5053506;28;20025;-80
2022/08/30 00:08:39;;;;;;;3.00;1.10;;;20.90;76.00;;;;;;5053459;28;20040;-81
2022/08/30 00:11:08;;;;;;;2.08;0.90;;;20.90;75.70;;;;;;5053306;28;20028;-81
2022/08/30 00:13:39;;;;;;;2.28;0.77;;;21.00;75.70;;;;;;5053141;28;20108;-81
2022/08/30 00:16:07;;;;;;;4.82;1.48;;;21.00;75.20;;;;;;5052880;28;20021;-80
2022/08/30 00:18:34;;;;;;;2.13;0.60;;;21.00;76.00;;;;;;5053315;28;20021;-80
2022/08/30 00:21:01;;;;;;;2.28;0.55;;;21.00;76.30;;;;;;5053274;28;20032;-80
2022/08/30 00:23:27;;;;;;;3.03;0.73;;;20.90;76.20;;;;;;5052943;28;20096;-80
2022/08/30 00:25:52;;;;;;;3.20;0.77;;;20.80;76.40;;;;;;5052841;28;20132;-81
2022/08/30 00:28:18;;;;;;;1.42;0.60;;;20.90;75.80;;;;;;5054354;28;20029;-81
2022/08/30 00:30:46;;;;;;;1.77;0.90;;;21.00;75.10;;;;;;5056692;28;20412;-81
2022/08/30 00:33:13;;;;;;;1.10;0.60;;;21.10;75.00;;;;;;5057217;28;20036;-80
2022/08/30 00:35:39;;;;;;;1.17;0.65;;;21.10;74.90;;;;;;5057023;28;20108;-80
2022/08/30 00:38:09;;;;;;;3.55;1.40;;;21.10;75.40;;;;;;5057189;28;20032;-81
2022/08/30 00:40:35;;;;;;;2.90;1.00;;;21.00;75.70;;;;;;5056756;28;20017;-80
2022/08/30 00:43:04;;;;;;;2.35;0.80;;;21.00;76.20;;;;;;5056507;28;20033;-81
2022/08/30 00:45:33;;;;;;;3.25;1.23;;;20.90;76.20;;;;;;5057052;28;20033;-81
2022/08/30 00:48:00;;;;;;;3.45;1.52;;;20.90;76.30;;;;;;5056868;28;20037;-80
2022/08/30 00:50:31;;;;;;;1.65;0.77;;;20.90;76.60;;;;;;5056600;28;20025;-80
2022/08/30 00:52:59;;;;;;;1.10;0.75;;;20.90;76.10;;;;;;5056889;28;20044;-80
2022/08/30 00:55:26;;;;;;;2.47;0.80;;;21.00;75.90;;;;;;5056421;28;20028;-80
2022/08/30 00:57:58;;;;;;;3.20;1.27;;;21.00;75.80;;;;;;5056326;28;20051;-80
2022/08/30 01:00:24;;;;;;;2.17;0.93;;;21.00;76.10;;;;;;5056703;28;20017;-81
2022/08/30 01:02:49;;;;;;;3.55;2.05;;;21.00;76.80;;;;;;5056570;28;20119;-80
2022/08/30 01:05:16;;;;;;;2.05;0.85;;;20.90;76.80;;;;;;5056460;28;20091;-80
2022/08/30 01:07:42;;;;;;;3.85;1.15;;;20.80;76.80;;;;;;5056462;28;20040;-81
2022/08/30 01:10:10;;;;;;;1.80;0.60;;;20.80;76.70;;;;;;5056234;28;20020;-81
2022/08/30 01:12:37;;;;;;;1.27;0.50;;;20.80;76.90;;;;;;5056218;28;20036;-80
2022/08/30 01:15:05;;;;;;;2.55;1.42;;;20.80;76.40;;;;;;5056350;28;20033;-80
2022/08/30 01:17:31;;;;;;;2.42;1.20;;;20.90;76.70;;;;;;5056228;28;20025;-80
2022/08/30 01:20:22;;;;;;;2.08;0.88;;;20.70;77.70;;;;;;5056057;28;20024;-80
2022/08/30 01:22:48;;;;;;;2.00;0.93;;;20.70;76.80;;;;;;5055969;28;20104;-80
2022/08/30 01:25:20;;;;;;;1.90;0.60;;;20.80;76.90;;;;;;5055972;28;20465;-80
2022/08/30 01:27:57;;;;;;;2.08;0.73;;;20.80;76.40;;;;;;5055571;28;20037;-80
2022/08/30 01:30:23;;;;;;;1.88;0.88;;;20.90;76.00;;;;;;5055945;28;20488;-80
2022/08/30 01:32:51;;;;;;;3.20;1.08;;;20.90;76.30;;;;;;5056119;28;20037;-80
2022/08/30 01:35:19;;;;;;;1.63;0.80;;;20.90;75.90;;;;;;5055745;28;20025;-80
2022/08/30 01:37:46;;;;;;;2.83;1.10;;;21.00;76.10;;;;;;5056057;28;20029;-80
2022/08/30 01:40:13;;;;;;;4.57;1.40;;;20.90;76.40;;;;;;5055630;28;20033;-80
2022/08/30 01:42:39;;;;;;;2.05;1.40;;;20.90;76.80;;;;;;5055583;28;20384;-80
2022/08/30 01:45:07;;;;;;;2.00;0.70;;;20.90;76.40;;;;;;5055726;28;20032;-80
2022/08/30 01:47:33;;;;;;;2.33;1.52;;;21.00;76.20;;;;;;5055449;28;20071;-80
2022/08/30 01:49:58;;;;;;;3.05;1.00;;;21.00;76.40;;;;;;5055856;28;20037;-80
2022/08/30 01:52:24;;;;;;;1.95;1.20;;;20.90;76.20;;;;;;5055557;28;20072;-80
2022/08/30 01:54:51;;;;;;;2.15;0.93;;;20.90;76.40;;;;;;5055522;28;20078;-80
2022/08/30 01:57:19;;;;;;;1.60;0.88;;;20.80;76.80;;;;;;5055634;28;20035;-80
2022/08/30 01:59:46;;;;;;;1.73;0.75;;;20.70;77.20;;;;;;5055379;28;20025;-80
2022/08/30 02:02:14;;;;;;;1.30;0.70;;;20.70;76.60;;;;;;5055248;28;20079;-80
2022/08/30 02:04:41;;;;;;;1.20;0.50;;;20.80;76.30;;;;;;5055303;28;20388;-80
2022/08/30 02:07:07;;;;;;;1.48;0.40;;;20.90;75.90;;;;;;5055373;28;20029;-80
2022/08/30 02:09:33;;;;;;;1.45;0.55;;;21.00;75.40;;;;;;5055296;28;20032;-80
2022/08/30 02:11:59;;;;;;;1.60;0.80;;;21.10;74.90;;;;;;5055315;28;20024;-80
2022/08/30 02:14:24;;;;;;;0.80;0.63;;;21.10;74.90;;;;;;5055196;28;20024;-80
2022/08/30 02:16:50;;;;;;;2.10;1.00;;;21.20;74.90;;;;;;5055119;28;20021;-80
2022/08/30 02:19:16;;;;;;;2.38;0.80;;;21.10;75.10;;;;;;5055155;28;20480;-80
2022/08/30 02:21:42;;;;;;;4.03;1.20;;;21.10;75.00;;;;;;5055104;28;20040;-80
2022/08/30 02:24:08;;;;;;;1.02;0.45;;;21.10;75.20;;;;;;5054986;28;20021;-79
2022/08/30 02:26:35;;;;;;;1.42;0.80;;;21.10;75.00;;;;;;5054830;28;20033;-80
2022/08/30 02:29:01;;;;;;;1.73;0.73;;;21.10;74.80;;;;;;5055046;28;20049;-80
2022/08/30 02:31:27;;;;;;;2.88;0.52;;;21.10;74.60;;;;;;5054497;28;20021;-80
2022/08/30 02:33:53;;;;;;;2.65;0.80;;;21.20;74.40;;;;;;5054692;28;20432;-80
2022/08/30 02:36:20;;;;;;;2.35;0.80;;;21.20;74.30;;;;;;5054788;28;20104;-80
2022/08/30 02:38:47;;;;;;;2.08;0.70;;;21.20;74.50;;;;;;5054655;28;20548;-80
2022/08/30 02:41:13;;;;;;;3.00;0.63;;;21.20;74.30;;;;;;5054828;28;20029;-80
2022/08/30 02:43:39;;;;;;;2.10;0.98;;;21.20;74.10;;;;;;5054521;28;20372;-80
2022/08/30 02:46:05;;;;;;;1.58;0.70;;;21.30;73.90;;;;;;5054119;28;20029;-80
2022/08/30 02:48:30;;;;;;;1.95;1.00;;;21.30;74.00;;;;;;5054675;28;20090;-80
2022/08/30 02:51:03;;;;;;;3.40;1.70;;;21.30;74.20;;;;;;5053844;28;20045;-78
2022/08/30 02:53:28;;;;;;;2.20;0.80;;;21.20;74.80;;;;;;5054370;28;20064;-80
2022/08/30 02:55:54;;;;;;;1.55;0.80;;;21.10;75.00;;;;;;5054252;28;20056;-80
2022/08/30 02:58:19;;;;;;;1.48;0.65;;;21.00;75.00;;;;;;5054307;28;20027;-80
2022/08/30 03:00:45;;;;;;;1.48;0.90;;;21.00;75.20;;;;;;5054049;28;20025;-80
2022/08/30 03:03:10;;;;;;;1.40;0.80;;;21.00;75.00;;;;;;5054374;28;20028;-80
2022/08/30 03:05:36;;;;;;;2.15;1.60;;;21.00;75.00;;;;;;5054018;28;20025;-80
2022/08/30 03:08:02;;;;;;;1.70;1.00;;;21.00;75.40;;;;;;5054028;28;20037;-80
2022/08/30 03:10:28;;;;;;;1.65;1.10;;;20.90;75.40;;;;;;5054310;28;20044;-80
2022/08/30 03:12:54;;;;;;;2.58;1.67;;;20.80;75.80;;;;;;5054197;28;20500;-80
2022/08/30 03:15:24;;;;;;;3.28;1.23;;;20.80;76.20;;;;;;5053891;28;20029;-80
2022/08/30 03:17:50;;;;;;;1.20;0.82;;;20.70;76.30;;;;;;5054110;28;20028;-80
2022/08/30 03:20:17;;;;;;;1.50;0.90;;;20.70;76.30;;;;;;5053930;28;20158;-80
2022/08/30 03:22:42;;;;;;;1.50;1.30;;;20.60;76.30;;;;;;5053948;28;20028;-80
2022/08/30 03:25:08;;;;;;;2.67;1.70;;;20.60;77.00;;;;;;5053594;28;20057;-78
2022/08/30 03:27:34;;;;;;;2.30;2.08;;;20.50;77.20;;;;;;5053284;28;20098;-80
2022/08/30 03:30:00;;;;;;;2.45;1.83;;;20.40;77.60;;;;;;5054149;28;20028;-80
2022/08/30 03:32:26;;;;;;;3.70;1.90;;;20.20;78.10;;;;;;5053601;28;20025;-80
2022/08/30 03:34:51;;;;;;;3.47;1.15;;;20.20;78.00;;;;;;5053707;28;20028;-80
2022/08/30 03:37:17;;;;;;;1.77;1.13;;;20.20;77.70;;;;;;5053627;28;20021;-80
2022/08/30 03:39:44;;;;;;;2.85;0.77;;;20.20;77.90;;;;;;5053864;28;20431;-80
2022/08/30 03:42:10;;;;;;;2.00;1.08;;;20.30;77.70;;;;;;5053427;28;20048;-80
2022/08/30 03:44:35;;;;;;;1.67;1.17;;;20.30;77.70;;;;;;5053396;28;20480;-80
2022/08/30 03:47:02;;;;;;;2.08;1.88;;;20.30;77.40;;;;;;5053629;28;20044;-80
2022/08/30 03:49:27;;;;;;;1.52;1.38;;;20.40;77.30;;;;;;5053454;28;20025;-80
2022/08/30 03:51:53;;;;;;;1.80;1.15;;;20.30;77.60;;;;;;5053355;28;20028;-80
2022/08/30 03:54:18;;;;;;;1.92;1.38;;;20.30;77.50;;;;;;5053339;28;20037;-80
2022/08/30 03:56:44;;;;;;;1.52;1.10;;;20.40;77.40;;;;;;5053522;28;20043;-80
2022/08/30 03:59:10;;;;;;;1.70;0.90;;;20.40;77.30;;;;;;5053220;28;20120;-80
2022/08/30 04:01:35;;;;;;;1.45;1.10;;;20.40;77.10;;;;;;5053434;28;20020;-80
2022/08/30 04:04:01;;;;;;;1.15;0.63;;;20.40;77.00;;;;;;5052853;28;20538;-79
2022/08/30 04:06:27;;;;;;;3.60;1.52;;;20.50;76.70;;;;;;5053099;28;20036;-80
2022/08/30 04:08:53;;;;;;;1.05;0.90;;;20.60;76.80;;;;;;5052937;28;20032;-80
2022/08/30 04:11:19;;;;;;;1.00;0.65;;;20.50;76.50;;;;;;5053139;28;20024;-80
2022/08/30 04:13:45;;;;;;;2.30;0.55;;;20.60;76.50;;;;;;5053236;28;20029;-80
2022/08/30 04:16:11;;;;;;;1.52;0.80;;;20.60;76.70;;;;;;5053096;28;20031;-80
2022/08/30 04:18:37;;;;;;;1.38;0.82;;;20.70;75.80;;;;;;5052981;28;20047;-80
2022/08/30 04:21:03;;;;;;;1.92;1.25;;;20.80;76.30;;;;;;5052948;28;20064;-80
2022/08/30 04:23:29;;;;;;;3.75;1.83;;;20.70;75.90;;;;;;5053109;28;20029;-80
2022/08/30 04:25:55;;;;;;;1.58;1.13;;;20.60;76.20;;;;;;5052536;28;20056;-80
2022/08/30 04:28:21;;;;;;;1.10;0.80;;;20.40;76.60;;;;;;5053060;28;20496;-80
2022/08/30 04:30:47;;;;;;;1.75;0.90;;;20.30;76.70;;;;;;5053100;28;20025;-80
2022/08/30 04:33:15;;;;;;;1.05;0.80;;;20.30;76.80;;;;;;5052864;28;20366;-80
2022/08/30 04:35:42;;;;;;;1.90;0.80;;;20.30;76.80;;;;;;5052647;28;20024;-80
2022/08/30 04:38:08;;;;;;;1.80;1.30;;;20.30;76.70;;;;;;5052746;28;20033;-80
2022/08/30 04:40:35;;;;;;;3.75;1.08;;;20.40;76.60;;;;;;5052739;28;20035;-80
2022/08/30 04:43:00;;;;;;;2.35;1.40;;;20.40;76.40;;;;;;5053036;28;20033;-80
2022/08/30 04:45:26;;;;;;;3.33;1.40;;;20.30;76.40;;;;;;5052662;28;20029;-80
2022/08/30 04:47:51;;;;;;;2.58;1.40;;;20.30;76.50;;;;;;5052951;28;20037;-80
2022/08/30 04:50:18;;;;;;;1.25;0.80;;;20.10;76.90;;;;;;5052645;28;20357;-80
2022/08/30 04:52:44;;;;;;;6.93;1.00;;;20.10;77.10;;;;;;5052992;28;20048;-79
2022/08/30 04:55:11;;;;;;;2.47;1.13;;;20.10;76.90;;;;;;5052643;28;20029;-80
2022/08/30 04:57:39;;;;;;;2.47;0.95;;;20.10;76.90;;;;;;5052914;28;20108;-79
2022/08/30 05:00:08;;;;;;;1.98;0.93;;;20.10;76.80;;;;;;5052876;28;20029;-79
2022/08/30 05:02:34;;;;;;;1.85;0.70;;;20.10;76.70;;;;;;5052496;28;20392;-79
2022/08/30 05:07:45;;;;;;;1.52;0.93;;;20.20;76.70;;;;;;5052693;28;20075;-79
2022/08/30 05:10:11;;;;;;;1.17;0.50;;;20.10;76.80;;;;;;5052678;28;20060;-80
2022/08/30 05:12:37;;;;;;;1.73;0.80;;;20.10;76.80;;;;;;5052465;28;20025;-80
2022/08/30 05:15:03;;;;;;;1.88;0.90;;;20.20;76.50;;;;;;5055172;28;20024;-79
2022/08/30 05:17:29;;;;;;;3.78;1.02;;;20.20;76.50;;;;;;5056197;28;20476;-79
2022/08/30 05:19:54;;;;;;;1.98;1.20;;;20.20;76.30;;;;;;5056345;28;20029;-78
2022/08/30 05:22:20;;;;;;;1.45;0.75;;;20.20;76.30;;;;;;5055921;28;20391;-79
2022/08/30 05:24:45;;;;;;;1.30;0.77;;;20.10;76.40;;;;;;5055971;28;20041;-79
2022/08/30 05:27:11;;;;;;;2.08;0.73;;;20.00;76.70;;;;;;5055814;28;20033;-78
2022/08/30 05:29:36;;;;;;;1.50;0.63;;;20.00;76.80;;;;;;5056149;28;20029;-79
2022/08/30 05:32:02;;;;;;;2.03;0.82;;;20.00;76.60;;;;;;5055826;28;20024;-79
2022/08/30 05:34:30;;;;;;;0.90;0.40;;;20.10;76.60;;;;;;5055369;28;20079;-79
2022/08/30 05:36:56;;;;;;;1.10;0.45;;;20.10;76.50;;;;;;5055535;28;20022;-78
2022/08/30 05:39:22;;;;;;;1.50;0.82;;;20.20;76.40;;;;;;5055959;28;20048;-79
2022/08/30 05:41:47;;;;;;;0.90;0.43;;;20.20;76.30;;;;;;5055784;28;20025;-78
2022/08/30 05:44:13;;;;;;;1.15;0.50;;;20.10;76.30;;;;;;5055530;28;20025;-79
2022/08/30 05:46:44;;;;;;;1.98;0.75;;;20.20;76.20;;;;;;5055555;28;20021;-79
2022/08/30 05:49:10;;;;;;;1.65;0.70;;;20.20;76.00;;;;;;5055627;28;20044;-79
2022/08/30 05:51:37;;;;;;;0.90;0.70;;;20.10;76.30;;;;;;5055648;28;20025;-79
2022/08/30 05:54:04;;;;;;;1.80;0.40;;;20.10;76.40;;;;;;5055695;28;20112;-79
2022/08/30 05:56:33;;;;;;;2.63;1.23;;;20.20;76.40;;;;;;5055651;28;20036;-79
2022/08/30 05:59:00;;;;;;;2.58;0.80;;;20.20;76.10;;;;;;5055119;28;20021;-78
2022/08/30 06:01:25;;;;;;;2.00;1.10;;;20.20;76.10;;;;;;5055188;28;20408;-79
2022/08/30 06:03:53;;;;;;;1.85;0.75;;;20.20;76.10;;;;;;5055433;28;20029;-79
2022/08/30 06:06:19;;;;;;;1.90;1.10;;;20.00;76.40;;;;;;5055187;28;20496;-78
2022/08/30 06:08:46;;;;;;;1.65;0.80;;;20.00;76.80;;;;;;5055117;28;20048;-79
2022/08/30 06:11:12;;;;;;;1.05;0.47;;;20.00;76.90;;;;;;5054841;28;20540;-78
2022/08/30 06:13:39;;;;;;;0.93;0.65;;;20.10;76.70;;;;;;5055284;28;20024;-78
2022/08/30 06:16:05;;;;;;;1.25;0.63;;;20.10;76.50;;;;;;5055343;28;20487;-78
2022/08/30 06:18:30;;;;;;;1.00;0.63;;;20.10;76.50;;;;;;5055035;28;20121;-78
2022/08/30 06:20:57;;;;;;;1.50;0.95;;;20.20;76.20;;;;;;5054904;28;20110;-79
2022/08/30 06:23:22;;;;;;;1.05;0.50;;;20.30;76.10;;;;;;5055091;28;20040;-78
2022/08/30 06:25:48;;;;;;;1.83;0.93;;;20.20;75.90;;;;;;5053474;28;20133;-78
2022/08/30 06:28:14;;;;;;;1.48;0.52;;;20.20;76.00;;;;;;5054858;28;20086;-77
2022/08/30 06:30:41;;;;;;;3.28;1.08;;;20.20;76.00;;;;;;5054568;28;20021;-78
2022/08/30 06:33:07;;;;;;;1.50;0.70;;;20.30;76.00;;;;;;5054599;28;20120;-78
2022/08/30 06:35:33;;;;;;;4.22;1.00;;;20.20;75.70;;;;;;5054876;28;20508;-78
2022/08/30 06:37:58;;;;;;;1.27;0.60;;;20.20;76.30;;;;;;5054648;28;20485;-79
2022/08/30 06:40:24;;;;;;;2.40;1.17;;;20.20;76.40;;;;;;5054793;28;20485;-79
2022/08/30 06:42:50;;;;;;;2.95;0.88;;;20.20;76.40;;;;;;5054698;28;20025;-79
2022/08/30 06:45:17;;;;;;;2.40;0.75;;;20.20;76.80;;;;;;5054450;28;20021;-79
2022/08/30 06:47:43;;;;;;;1.75;0.55;;;20.20;77.00;;;;;;5054224;28;20095;-79
2022/08/30 06:50:11;;;;;;;2.42;0.95;;;20.30;76.80;;;;;;5054044;28;20114;-79
2022/08/30 06:52:37;;;;;;;4.25;1.20;;;20.30;75.60;;;;;;5054590;28;20396;-79
2022/08/30 06:55:03;;;;;;;2.78;0.85;;;20.20;76.30;;;;;;5054084;28;20017;-78
2022/08/30 06:57:28;;;;;;;1.90;0.88;;;20.00;76.50;;;;;;5054078;28;20032;-79
2022/08/30 06:59:55;;;;;;;3.83;0.88;;;20.10;76.90;;;;;;5054108;28;20487;-79
2022/08/30 07:02:21;;;;;;;1.88;0.60;;;20.10;76.40;;;;;;5054062;28;20109;-78
2022/08/30 07:04:47;;;;;;;2.55;0.60;;;20.10;75.80;;;;;;5054267;28;20049;-79
2022/08/30 07:07:13;;;;;;;2.20;0.80;;;20.00;75.60;;;;;;5054162;28;20037;-78
2022/08/30 07:09:42;;;;;;;2.22;0.50;;;20.10;76.00;;;;;;5053764;28;20025;-78
2022/08/30 07:12:08;;;;;;;1.88;0.47;;;20.20;75.40;;;;;;5053774;28;20548;-78
2022/08/30 07:14:35;;;;;;;2.78;0.55;;;20.30;75.50;;;;;;5053929;28;20047;-78
2022/08/30 07:17:01;;;;;;;3.35;0.77;;;20.50;75.60;;;;;;5053742;28;20021;-78
2022/08/30 07:19:26;;;;;;;3.03;0.60;;;20.50;74.00;;;;;;5053436;28;20089;-78
2022/08/30 07:21:52;;;;;;;2.80;0.93;;;20.40;73.60;;;;;;5054189;28;20064;-79
2022/08/30 07:24:18;;;;;;;2.53;0.40;;;20.40;75.20;;;;;;5053269;28;20045;-78
2022/08/30 07:26:48;;;;;;;1.13;0.60;;;20.50;74.50;;;;;;5053854;28;20078;-79
2022/08/30 07:29:15;;;;;;;1.70;0.40;;;20.60;73.90;;;;;;5053739;28;20036;-79
2022/08/30 07:31:41;;;;;;;3.05;0.60;;;20.60;73.40;;;;;;5053440;28;20427;-79
2022/08/30 07:34:07;;;;;;;3.70;0.70;;;20.70;73.10;;;;;;5053824;28;20021;-79
2022/08/30 07:36:35;;;;;;;2.03;0.52;;;20.80;73.50;;;;;;5053283;28;20021;-79
2022/08/30 07:39:01;;;;;;;1.75;0.50;;;20.70;72.70;;;;;;5053428;28;20033;-79
2022/08/30 07:41:30;;;;;;;3.40;0.60;;;20.70;72.70;;;;;;5053480;28;20388;-79
2022/08/30 07:43:57;;;;;;;1.67;0.60;;;20.80;72.60;;;;;;5053253;28;20108;-79
2022/08/30 07:46:23;;;;;;;1.90;0.40;;;20.90;72.40;;;;;;5053501;28;20155;-79
2022/08/30 07:48:49;;;;;;;3.95;0.50;;;21.00;71.90;;;;;;5053063;28;20037;-79
2022/08/30 07:51:19;;;;;;;1.60;0.40;;;21.20;71.60;;;;;;5053124;28;20031;-79
2022/08/30 07:53:45;;;;;;;4.28;0.30;;;21.10;70.10;;;;;;5053555;28;20461;-79
2022/08/30 07:56:11;;;;;;;2.38;0.40;;;21.00;71.10;;;;;;5052816;28;20032;-79
2022/08/30 07:58:38;;;;;;;2.10;0.32;;;21.10;71.00;;;;;;5053382;28;20036;-79
2022/08/30 08:01:06;;;;;;;1.33;0.20;;;21.20;69.90;;;;;;5053157;28;20530;-79
2022/08/30 08:03:32;;;;;;;3.53;0.50;;;21.10;69.60;;;;;;5053060;28;20032;-79
2022/08/30 08:06:01;;;;;;;1.15;0.30;;;21.10;70.30;;;;;;5053236;28;20091;-79
2022/08/30 08:08:26;;;;;;;2.17;0.47;;;21.10;70.40;;;;;;5053006;28;20044;-79
2022/08/30 08:10:52;;;;;;;1.27;0.20;;;21.20;70.60;;;;;;5053140;28;20021;-79
2022/08/30 08:13:18;;;;;;;2.80;0.45;;;21.30;69.90;;;;;;5052998;28;20028;-80
2022/08/30 08:15:43;;;;;;;2.55;0.50;;;21.50;69.40;;;;;;5053350;28;20476;-79
2022/08/30 08:18:09;;;;;;;2.50;0.40;;;21.50;68.90;;;;;;5053177;28;20032;-79
2022/08/30 08:20:35;;;;;;;3.78;0.38;;;21.50;69.70;;;;;;5053167;28;20354;-79
2022/08/30 08:23:01;;;;;;;3.33;0.50;;;21.70;69.10;;;;;;5052660;28;20481;-79
2022/08/30 08:25:28;;;;;;;1.40;0.45;;;21.90;68.10;;;;;;5052857;28;20071;-80
2022/08/30 08:27:54;;;;;;;3.40;0.30;;;21.90;67.60;;;;;;5052911;28;20036;-80
2022/08/30 08:30:21;;;;;;;2.90;0.22;;;22.10;66.60;;;;;;5053141;28;20491;-80
2022/08/30 08:32:47;;;;;;;2.72;0.38;;;22.20;66.00;;;;;;5052841;28;20036;-80
2022/08/30 08:35:14;;;;;;;2.65;0.40;;;22.30;66.20;;;;;;5053123;28;20025;-80
2022/08/30 08:37:40;;;;;;;4.93;0.50;;;22.30;65.40;;;;;;5052878;28;20035;-80
2022/08/30 08:40:06;;;;;;;1.05;0.30;;;22.30;65.10;;;;;;5052878;28;20021;-80
2022/08/30 08:42:59;;;;;;;3.78;0.43;;;22.30;66.10;;;;;;5052468;28;20920;-80
2022/08/30 08:45:53;;;;;;;2.05;0.40;;;22.50;64.00;;;;;;5052928;28;20033;-80
2022/08/30 08:48:27;;;;;;;1.77;0.57;;;22.40;62.30;;;;;;5052403;28;20052;-80
2022/08/30 08:53:39;;;;;;;1.50;0.40;;;22.50;60.00;;;;;;5056573;28;20032;-80
2022/08/30 08:56:13;;;;;;;5.45;0.50;;;22.50;60.00;;;;;;5056810;28;20045;-80
2022/08/30 08:58:55;;;;;;;1.90;0.32;;;22.60;60.60;;;;;;5056156;28;20017;-80
2022/08/30 09:01:27;;;;;;;1.83;0.30;;;22.60;61.60;;;;;;5056737;28;20180;-80
2022/08/30 09:03:55;;;;;;;3.13;0.38;;;22.70;61.20;;;;;;5056563;28;20422;-80
2022/08/30 09:06:32;;;;;;;0.98;0.52;;;22.80;60.00;;;;;;5056079;28;20112;-80
2022/08/30 09:08:58;;;;;;;1.30;0.50;;;23.00;59.10;;;;;;5055830;28;20091;-80
2022/08/30 09:11:27;;;;;;;1.40;0.35;;;22.90;58.50;;;;;;5056127;28;20059;-80
2022/08/30 09:13:53;;;;;;;0.90;0.30;;;22.90;59.40;;;;;;5055783;28;20112;-80
2022/08/30 09:16:45;;;;;;;3.38;0.40;;;22.90;60.60;;;;;;5056212;28;20112;-80
2022/08/30 09:19:12;;;;;;;2.67;0.30;;;23.00;60.10;;;;;;5056332;28;20104;-80
2022/08/30 09:21:37;;;;;;;1.77;0.40;;;23.20;61.30;;;;;;5056267;28;20033;-80
2022/08/30 09:24:06;;;;;;;2.17;0.30;;;23.30;60.00;;;;;;5055869;28;20063;-80
2022/08/30 09:26:35;;;;;;;1.30;0.40;;;23.40;59.20;;;;;;5056233;28;20079;-81
2022/08/30 09:29:01;;;;;;;1.40;0.63;;;23.40;59.80;;;;;;5055871;28;20105;-80
2022/08/30 09:31:52;;;;;;;1.10;0.32;;;23.50;59.60;;;;;;5055788;28;20021;-80
2022/08/30 09:34:21;;;;;;;4.97;0.38;;;23.30;60.10;;;;;;5052821;28;20052;-80
2022/08/30 09:36:51;;;;;;;3.97;0.40;;;23.30;61.80;;;;;;5055275;28;20033;-80
2022/08/30 09:39:32;;;;;;;2.15;0.43;;;23.40;61.50;;;;;;5055813;28;20052;-80
2022/08/30 09:42:22;;;;;;;1.75;0.30;;;23.40;58.70;;;;;;5055649;28;20078;-81
2022/08/30 09:44:48;;;;;;;3.90;0.52;;;23.50;59.20;;;;;;5055511;28;20037;-80
2022/08/30 09:47:20;;;;;;;2.95;0.80;;;23.60;58.00;;;;;;5055623;28;20170;-81
2022/08/30 09:49:46;;;;;;;3.70;0.40;;;23.60;57.90;;;;;;5055353;28;20029;-80
2022/08/30 09:52:34;;;;;;;1.15;0.40;;;23.50;57.70;;;;;;5055570;28;20029;-80
2022/08/30 09:55:14;;;;;;;1.00;0.43;;;23.50;57.20;;;;;;5055218;28;20036;-81
2022/08/30 09:57:51;;;;;;;1.98;0.40;;;23.50;58.20;;;;;;5055689;28;20028;-80
2022/08/30 10:00:23;;;;;;;1.95;0.40;;;23.50;57.60;;;;;;5055299;28;20102;-80
2022/08/30 10:03:19;;;;;;;2.17;0.50;;;23.60;57.70;;;;;;5055471;28;20025;-80
2022/08/30 10:06:05;;;;;;;1.85;0.40;;;23.70;57.30;;;;;;5055281;28;20025;-81
2022/08/30 10:08:52;;;;;;;2.25;0.88;;;23.70;56.70;;;;;;5055432;28;20051;-81
2022/08/30 10:11:29;;;;;;;1.65;0.40;;;23.80;56.70;;;;;;5054919;28;20025;-81
2022/08/30 10:14:22;;;;;;;0.98;0.30;;;23.90;57.00;;;;;;5055073;28;20032;-81
2022/08/30 10:17:06;;;;;;;;;;;24.10;57.00;;;;;;5055288;28;20025;-80
2022/08/30 10:19:54;;;;;;;1.80;0.63;;;24.20;56.30;;;;;;5054773;28;19909;-81
2022/08/30 10:22:45;;;;;;;1.02;0.30;;;24.30;55.40;;;;;;5054779;28;20037;-81
2022/08/30 10:25:26;;;;;;;4.32;0.60;;;24.30;55.50;;;;;;5054732;28;20155;-81
2022/08/30 10:28:10;;;;;;;5.03;0.47;;;24.40;56.00;;;;;;5054858;28;20083;-81
2022/08/30 10:30:39;;;;;;;2.17;0.30;;;24.40;54.60;;;;;;5054746;28;20021;-81
2022/08/30 10:33:10;;;;;;;4.10;0.50;;;24.50;54.20;;;;;;5054690;28;20388;-81
2022/08/30 10:35:56;;;;;;;1.90;0.50;;;24.60;55.00;;;;;;5054535;28;20373;-81
2022/08/30 10:38:29;;;;;;;4.03;0.85;;;24.70;54.70;;;;;;5054429;28;20068;-81
2022/08/30 10:41:14;;;;;;;3.45;0.30;;;24.80;55.10;;;;;;5054492;28;20086;-81
2022/08/30 10:43:58;;;;;;;2.35;0.43;;;25.00;55.10;;;;;;5054255;28;20025;-81
2022/08/30 10:46:33;;;;;;;2.95;0.43;;;24.90;54.30;;;;;;5054771;28;20112;-81
2022/08/30 10:49:00;;;;;;;1.70;0.40;;;24.90;53.90;;;;;;5054681;28;20033;-81
2022/08/30 10:51:40;;;;;;;1.73;0.30;;;25.00;53.40;;;;;;5054206;28;20032;-81
2022/08/30 10:54:17;;;;;;;4.07;0.40;;;25.00;53.60;;;;;;5054503;28;20032;-81
2022/08/30 10:56:46;;;;;;;1.52;0.40;;;25.10;53.50;;;;;;5054408;28;20025;-81
2022/08/30 10:59:15;;;;;;;1.90;0.30;;;25.20;54.10;;;;;;5054006;28;20376;-81
2022/08/30 11:02:25;;;;;;;2.10;0.57;;;25.20;53.50;;;;;;5054068;28;20025;-81
2022/08/30 11:04:57;;;;;;;2.95;0.47;;;25.30;53.50;;;;;;5032074;28;20029;-81
2022/08/30 11:07:33;;;;;;;0.85;0.20;;;25.40;52.90;;;;;;5031915;28;20180;-81
2022/08/30 11:09:59;;;;;;;2.17;0.30;;;25.40;53.50;;;;;;5044421;28;20090;-81
2022/08/30 11:12:50;;;;;;;1.13;0.38;;;25.50;53.80;;;;;;5053218;28;20104;-81
2022/08/30 11:15:23;;;;;;;3.72;0.50;;;25.50;52.60;;;;;;5054155;28;20091;-81
2022/08/30 11:18:04;;;;;;;2.53;0.50;;;25.60;52.90;;;;;;5053847;28;20029;-82
2022/08/30 11:20:32;;;;;;;2.25;0.57;;;25.70;51.80;;;;;;5053563;28;20551;-81
2022/08/30 11:23:17;;;;;;;1.58;0.40;;;25.80;52.60;;;;;;5053812;28;20405;-81
2022/08/30 11:25:58;;;;;;;1.67;0.45;;;25.90;52.50;;;;;;5053477;28;20111;-81
2022/08/30 11:28:36;;;;;;;4.93;0.55;;;26.00;53.10;;;;;;5053847;28;20041;-81
2022/08/30 11:31:09;;;;;;;4.88;0.32;;;26.10;53.90;;;;;;5053605;28;20079;-81
2022/08/30 11:33:44;;;;;;;2.53;0.35;;;26.20;53.10;;;;;;5053833;28;20028;-81
2022/08/30 11:36:38;;;;;;;0.73;0.35;;;26.30;52.90;;;;;;5053278;28;20480;-81
2022/08/30 11:39:24;;;;;;;2.60;0.65;;;26.30;52.70;;;;;;5044795;28;20098;-81
2022/08/30 11:42:23;;;;;;;1.45;0.40;;;26.50;52.10;;;;;;5053479;28;20028;-81
2022/08/30 11:44:49;;;;;;;4.07;0.40;;;26.60;51.40;;;;;;5053429;28;20104;-81
2022/08/30 11:47:37;;;;;;;3.20;0.75;;;26.40;51.20;;;;;;5053427;28;20124;-81
2022/08/30 11:50:12;;;;;;;2.42;0.30;;;26.50;52.20;;;;;;5053142;28;20354;-81
2022/08/30 11:52:49;;;;;;;1.77;0.35;;;26.60;51.70;;;;;;5053193;28;20461;-82
2022/08/30 11:55:39;;;;;;;1.70;0.30;;;26.70;51.70;;;;;;5053212;28;20039;-82
2022/08/30 11:58:14;;;;;;;1.42;0.43;;;26.80;50.80;;;;;;5053110;28;20025;-82
2022/08/30 12:00:46;;;;;;;4.90;0.40;;;26.90;50.10;;;;;;5053324;28;20032;-82
2022/08/30 12:03:15;;;;;;;1.70;0.32;;;27.00;49.70;;;;;;5053352;28;20163;-81
2022/08/30 12:05:44;;;;;;;1.85;0.38;;;26.90;48.90;;;;;;5052928;28;20021;-81
2022/08/30 12:08:19;;;;;;;1.52;0.30;;;26.80;50.20;;;;;;5053068;28;20112;-82
2022/08/30 12:10:56;;;;;;;4.68;0.52;;;26.90;49.60;;;;;;5052928;28;20099;-82
2022/08/30 12:13:36;;;;;;;1.48;0.28;;;26.90;49.40;;;;;;5053181;28;20044;-81
2022/08/30 12:16:33;;;;;;;4.70;0.30;;;27.00;50.20;;;;;;5052888;28;20026;-81
2022/08/30 12:19:14;;;;;;;2.22;0.40;;;27.00;50.20;;;;;;5052985;28;20427;-82
2022/08/30 12:21:40;;;;;;;1.42;0.38;;;27.20;49.60;;;;;;5052609;28;20104;-82
2022/08/30 12:24:25;;;;;;;4.03;0.40;;;27.20;49.40;;;;;;5053791;28;20055;-81
2022/08/30 12:26:52;;;;;;;2.72;0.40;;;27.20;49.50;;;;;;5056798;28;20037;-82
2022/08/30 12:29:26;;;;;;;2.75;0.60;;;27.10;48.70;;;;;;5057129;28;20041;-81
2022/08/30 12:31:54;;;;;;;2.17;0.20;;;27.00;48.40;;;;;;5056805;28;20379;-81
2022/08/30 12:34:50;;;;;;;1.92;0.30;;;27.00;49.60;;;;;;5057065;28;20095;-82
2022/08/30 12:37:37;;;;;;;4.03;0.70;;;27.00;49.80;;;;;;5055608;28;20057;-81
2022/08/30 12:40:05;;;;;;;1.85;0.32;;;26.90;49.00;;;;;;5057026;28;20025;-82
2022/08/30 12:42:36;;;;;;;5.65;0.40;;;27.00;49.50;;;;;;5056474;28;20057;-82
2022/08/30 12:45:11;;;;;;;2.33;0.35;;;27.10;48.60;;;;;;5056696;28;20029;-81
2022/08/30 12:47:49;;;;;;;3.83;0.30;;;27.30;48.90;;;;;;5056665;28;20052;-82
2022/08/30 12:50:19;;;;;;;3.55;0.50;;;27.20;49.30;;;;;;5056565;28;20540;-82
2022/08/30 12:52:54;;;;;;;2.90;0.30;;;27.20;48.00;;;;;;5057115;28;20033;-82
2022/08/30 12:55:24;;;;;;;1.90;0.40;;;27.20;48.70;;;;;;5056839;28;20056;-82
2022/08/30 12:57:58;;;;;;;1.48;0.30;;;27.20;48.40;;;;;;5056443;28;20040;-82
2022/08/30 13:00:36;;;;;;;1.45;0.35;;;27.30;48.90;;;;;;5056483;28;20044;-82
2022/08/30 13:03:24;;;;;;;2.08;0.40;;;27.40;47.90;;;;;;5056466;28;20431;-81
2022/08/30 13:05:51;;;;;;;2.70;0.50;;;27.40;47.30;;;;;;5056297;28;20476;-82
2022/08/30 13:08:21;;;;;;;1.88;0.38;;;27.40;47.20;;;;;;5056263;28;20120;-82